sensor_id;sensor_type;location;lat;lon;timestamp;pressure;altitude;pressure_sealevel;temperature;humidity
72096;BME280;59968;51.084;16.748;2023-05-22T00:00:43;100408.82;;;17.35;58.92
72096;BME280;59968;51.084;16.748;2023-05-22T00:03:21;100405.42;;;17.31;59.12
72096;BME280;59968;51.084;16.748;2023-05-22T00:05:52;100408.84;;;17.30;59.22
72096;BME280;59968;51.084;16.748;2023-05-22T00:08:27;100411.45;;;17.26;59.37
72096;BME280;59968;51.084;16.748;2023-05-22T00:10:57;100410.40;;;17.24;59.45
72096;BME280;59968;51.084;16.748;2023-05-22T00:13:31;100411.59;;;17.21;59.40
72096;BME280;59968;51.084;16.748;2023-05-22T00:16:04;100411.73;;;17.17;59.56
72096;BME280;59968;51.084;16.748;2023-05-22T00:18:35;100411.90;;;17.15;59.61
72096;BME280;59968;51.084;16.748;2023-05-22T00:21:08;100410.23;;;17.12;59.71
72096;BME280;59968;51.084;16.748;2023-05-22T00:23:40;100411.06;;;17.09;59.76
72096;BME280;59968;51.084;16.748;2023-05-22T00:26:13;100411.31;;;17.07;59.71
72096;BME280;59968;51.084;16.748;2023-05-22T00:28:46;100409.81;;;17.03;59.83
72096;BME280;59968;51.084;16.748;2023-05-22T00:31:23;100411.14;;;17.01;59.93
72096;BME280;59968;51.084;16.748;2023-05-22T00:33:54;100408.27;;;16.99;60.02
72096;BME280;59968;51.084;16.748;2023-05-22T00:36:24;100409.41;;;16.96;60.25
72096;BME280;59968;51.084;16.748;2023-05-22T00:38:56;100408.86;;;16.93;60.08
72096;BME280;59968;51.084;16.748;2023-05-22T00:41:24;100410.54;;;16.91;60.21
72096;BME280;59968;51.084;16.748;2023-05-22T00:43:56;100413.55;;;16.87;60.40
72096;BME280;59968;51.084;16.748;2023-05-22T00:46:27;100418.29;;;16.83;60.64
72096;BME280;59968;51.084;16.748;2023-05-22T00:48:59;100416.95;;;16.78;60.71
72096;BME280;59968;51.084;16.748;2023-05-22T00:51:28;100409.30;;;16.71;60.60
72096;BME280;59968;51.084;16.748;2023-05-22T00:54:03;100409.79;;;16.65;60.64
72096;BME280;59968;51.084;16.748;2023-05-22T00:56:39;100408.62;;;16.60;60.72
72096;BME280;59968;51.084;16.748;2023-05-22T00:59:16;100412.98;;;16.54;60.98
72096;BME280;59968;51.084;16.748;2023-05-22T01:01:48;100413.50;;;16.49;60.85
72096;BME280;59968;51.084;16.748;2023-05-22T01:04:24;100414.63;;;16.44;61.07
72096;BME280;59968;51.084;16.748;2023-05-22T01:06:56;100412.70;;;16.39;61.33
72096;BME280;59968;51.084;16.748;2023-05-22T01:09:33;100414.88;;;16.33;61.27
72096;BME280;59968;51.084;16.748;2023-05-22T01:15:39;100414.13;;;16.23;61.42
72096;BME280;59968;51.084;16.748;2023-05-22T01:18:20;100417.27;;;16.18;61.50
72096;BME280;59968;51.084;16.748;2023-05-22T01:21:20;100419.33;;;16.11;61.95
72096;BME280;59968;51.084;16.748;2023-05-22T01:33:15;100425.08;;;15.84;62.03
72096;BME280;59968;51.084;16.748;2023-05-22T01:35:58;100414.73;;;15.75;62.27
72096;BME280;59968;51.084;16.748;2023-05-22T01:38:43;100420.64;;;15.71;62.35
72096;BME280;59968;51.084;16.748;2023-05-22T01:41:18;100420.58;;;15.62;62.55
72096;BME280;59968;51.084;16.748;2023-05-22T01:43:51;100420.90;;;15.56;62.86
72096;BME280;59968;51.084;16.748;2023-05-22T01:46:27;100416.58;;;15.49;62.73
72096;BME280;59968;51.084;16.748;2023-05-22T01:49:16;100415.33;;;15.46;63.12
72096;BME280;59968;51.084;16.748;2023-05-22T01:51:57;100410.57;;;15.42;63.65
72096;BME280;59968;51.084;16.748;2023-05-22T01:54:50;100408.43;;;15.38;63.95
72096;BME280;59968;51.084;16.748;2023-05-22T01:57:33;100412.71;;;15.36;64.20
72096;BME280;59968;51.084;16.748;2023-05-22T02:00:23;100408.19;;;15.34;64.18
72096;BME280;59968;51.084;16.748;2023-05-22T02:03:07;100410.41;;;15.33;64.32
72096;BME280;59968;51.084;16.748;2023-05-22T02:05:56;100407.30;;;15.32;64.64
72096;BME280;59968;51.084;16.748;2023-05-22T02:08:30;100406.61;;;15.30;64.82
72096;BME280;59968;51.084;16.748;2023-05-22T02:11:12;100403.02;;;15.29;64.73
72096;BME280;59968;51.084;16.748;2023-05-22T02:14:04;100403.81;;;15.27;64.76
72096;BME280;59968;51.084;16.748;2023-05-22T02:16:48;100404.31;;;15.25;64.99
72096;BME280;59968;51.084;16.748;2023-05-22T02:19:27;100407.85;;;15.24;64.94
72096;BME280;59968;51.084;16.748;2023-05-22T02:22:05;100408.40;;;15.21;64.96
72096;BME280;59968;51.084;16.748;2023-05-22T02:24:47;100407.78;;;15.19;65.06
72096;BME280;59968;51.084;16.748;2023-05-22T02:27:30;100405.52;;;15.13;64.96
72096;BME280;59968;51.084;16.748;2023-05-22T02:30:23;100401.67;;;15.08;65.04
72096;BME280;59968;51.084;16.748;2023-05-22T02:33:00;100398.30;;;15.02;65.26
72096;BME280;59968;51.084;16.748;2023-05-22T02:35:45;100399.02;;;15.00;65.19
72096;BME280;59968;51.084;16.748;2023-05-22T02:38:24;100402.81;;;14.96;65.17
72096;BME280;59968;51.084;16.748;2023-05-22T02:41:07;100402.77;;;14.92;65.17
72096;BME280;59968;51.084;16.748;2023-05-22T02:43:36;100402.55;;;14.90;65.11
72096;BME280;59968;51.084;16.748;2023-05-22T02:46:10;100404.65;;;14.89;65.22
72096;BME280;59968;51.084;16.748;2023-05-22T02:49:00;100406.34;;;14.88;65.26
72096;BME280;59968;51.084;16.748;2023-05-22T02:51:40;100402.17;;;14.87;65.17
72096;BME280;59968;51.084;16.748;2023-05-22T02:54:27;100407.77;;;14.85;65.13
72096;BME280;59968;51.084;16.748;2023-05-22T02:57:06;100410.43;;;14.85;65.11
72096;BME280;59968;51.084;16.748;2023-05-22T02:59:35;100409.39;;;14.85;65.05
72096;BME280;59968;51.084;16.748;2023-05-22T03:02:12;100402.88;;;14.84;65.02
72096;BME280;59968;51.084;16.748;2023-05-22T03:05:02;100400.54;;;14.80;64.95
72096;BME280;59968;51.084;16.748;2023-05-22T03:07:47;100397.57;;;14.76;65.02
72096;BME280;59968;51.084;16.748;2023-05-22T03:10:43;100401.33;;;14.72;65.14
72096;BME280;59968;51.084;16.748;2023-05-22T03:13:24;100405.04;;;14.66;65.21
72096;BME280;59968;51.084;16.748;2023-05-22T03:16:04;100408.85;;;14.60;65.48
72096;BME280;59968;51.084;16.748;2023-05-22T03:18:45;100411.77;;;14.57;65.49
72096;BME280;59968;51.084;16.748;2023-05-22T03:21:43;100411.36;;;14.56;65.78
72096;BME280;59968;51.084;16.748;2023-05-22T03:24:24;100403.95;;;14.56;65.82
72096;BME280;59968;51.084;16.748;2023-05-22T03:27:04;100403.21;;;14.57;65.98
72096;BME280;59968;51.084;16.748;2023-05-22T03:29:50;100401.45;;;14.57;66.02
72096;BME280;59968;51.084;16.748;2023-05-22T03:32:28;100397.76;;;14.58;66.12
72096;BME280;59968;51.084;16.748;2023-05-22T03:35:14;100393.92;;;14.59;66.29
72096;BME280;59968;51.084;16.748;2023-05-22T03:37:50;100393.63;;;14.61;66.09
72096;BME280;59968;51.084;16.748;2023-05-22T03:40:48;100390.58;;;14.67;66.16
72096;BME280;59968;51.084;16.748;2023-05-22T03:43:25;100390.04;;;14.72;66.09
72096;BME280;59968;51.084;16.748;2023-05-22T03:46:07;100386.20;;;14.74;65.96
72096;BME280;59968;51.084;16.748;2023-05-22T03:48:51;100392.30;;;14.80;65.94
72096;BME280;59968;51.084;16.748;2023-05-22T03:51:23;100392.40;;;14.83;65.72
72096;BME280;59968;51.084;16.748;2023-05-22T03:54:24;100386.47;;;14.87;65.65
72096;BME280;59968;51.084;16.748;2023-05-22T03:59:38;100389.77;;;15.07;65.60
72096;BME280;59968;51.084;16.748;2023-05-22T04:02:12;100387.25;;;15.18;65.34
72096;BME280;59968;51.084;16.748;2023-05-22T04:04:47;100381.98;;;15.31;65.11
72096;BME280;59968;51.084;16.748;2023-05-22T04:07:21;100384.52;;;15.46;64.90
72096;BME280;59968;51.084;16.748;2023-05-22T04:09:53;100384.36;;;15.61;64.53
72096;BME280;59968;51.084;16.748;2023-05-22T04:12:30;100388.65;;;15.76;64.38
72096;BME280;59968;51.084;16.748;2023-05-22T04:15:04;100388.88;;;15.89;64.29
72096;BME280;59968;51.084;16.748;2023-05-22T04:17:43;100392.42;;;16.04;63.82
72096;BME280;59968;51.084;16.748;2023-05-22T04:20:16;100393.80;;;16.17;63.38
72096;BME280;59968;51.084;16.748;2023-05-22T04:22:55;100395.52;;;16.30;63.34
72096;BME280;59968;51.084;16.748;2023-05-22T04:25:27;100392.66;;;16.43;63.33
72096;BME280;59968;51.084;16.748;2023-05-22T04:28:00;100388.42;;;16.55;63.13
72096;BME280;59968;51.084;16.748;2023-05-22T04:30:34;100393.67;;;16.68;62.79
72096;BME280;59968;51.084;16.748;2023-05-22T04:33:05;100383.02;;;16.72;62.24
72096;BME280;59968;51.084;16.748;2023-05-22T04:35:36;100396.27;;;16.92;62.26
72096;BME280;59968;51.084;16.748;2023-05-22T04:38:07;100393.58;;;17.05;61.97
72096;BME280;59968;51.084;16.748;2023-05-22T04:40:41;100392.78;;;17.21;61.86
72096;BME280;59968;51.084;16.748;2023-05-22T04:43:14;100387.78;;;17.40;61.12
72096;BME280;59968;51.084;16.748;2023-05-22T04:45:46;100387.60;;;17.58;60.60
72096;BME280;59968;51.084;16.748;2023-05-22T04:48:17;100386.73;;;17.76;60.10
72096;BME280;59968;51.084;16.748;2023-05-22T04:50:49;100385.10;;;17.89;59.35
72096;BME280;59968;51.084;16.748;2023-05-22T04:53:21;100382.92;;;17.99;58.80
72096;BME280;59968;51.084;16.748;2023-05-22T04:55:50;100379.58;;;18.12;58.58
72096;BME280;59968;51.084;16.748;2023-05-22T04:58:25;100375.26;;;18.23;58.42
72096;BME280;59968;51.084;16.748;2023-05-22T05:00:58;100377.56;;;18.35;58.18
72096;BME280;59968;51.084;16.748;2023-05-22T05:03:28;100379.29;;;18.46;58.09
72096;BME280;59968;51.084;16.748;2023-05-22T05:06:03;100382.77;;;18.55;57.87
72096;BME280;59968;51.084;16.748;2023-05-22T05:08:32;100383.41;;;18.66;57.47
72096;BME280;59968;51.084;16.748;2023-05-22T05:11:02;100384.42;;;18.78;57.30
72096;BME280;59968;51.084;16.748;2023-05-22T05:13:31;100385.60;;;18.90;56.73
72096;BME280;59968;51.084;16.748;2023-05-22T05:16:01;100379.05;;;18.95;56.52
72096;BME280;59968;51.084;16.748;2023-05-22T05:18:30;100382.81;;;19.09;56.02
72096;BME280;59968;51.084;16.748;2023-05-22T05:20:59;100379.69;;;19.19;55.71
72096;BME280;59968;51.084;16.748;2023-05-22T05:23:28;100383.45;;;19.29;55.47
72096;BME280;59968;51.084;16.748;2023-05-22T05:25:59;100382.35;;;19.40;55.17
72096;BME280;59968;51.084;16.748;2023-05-22T05:28:28;100382.77;;;19.52;54.43
72096;BME280;59968;51.084;16.748;2023-05-22T05:30:57;100385.90;;;19.63;53.77
72096;BME280;59968;51.084;16.748;2023-05-22T05:33:44;100386.86;;;19.74;53.29
72096;BME280;59968;51.084;16.748;2023-05-22T05:36:36;100365.19;;;19.71;52.20
72096;BME280;59968;51.084;16.748;2023-05-22T05:39:05;100382.27;;;19.93;52.64
72096;BME280;59968;51.084;16.748;2023-05-22T05:41:35;100385.75;;;20.04;52.34
72096;BME280;59968;51.084;16.748;2023-05-22T05:44:08;100387.33;;;20.08;52.24
72096;BME280;59968;51.084;16.748;2023-05-22T05:46:38;100389.10;;;20.12;51.92
72096;BME280;59968;51.084;16.748;2023-05-22T05:49:10;100385.86;;;20.14;51.56
72096;BME280;59968;51.084;16.748;2023-05-22T05:51:40;100385.33;;;20.10;51.29
72096;BME280;59968;51.084;16.748;2023-05-22T05:54:10;100384.25;;;20.07;51.32
72096;BME280;59968;51.084;16.748;2023-05-22T05:56:40;100383.44;;;20.10;51.16
72096;BME280;59968;51.084;16.748;2023-05-22T05:59:09;100383.05;;;20.13;50.85
72096;BME280;59968;51.084;16.748;2023-05-22T06:01:42;100385.05;;;20.19;50.48
72096;BME280;59968;51.084;16.748;2023-05-22T06:04:17;100384.69;;;20.28;50.50
72096;BME280;59968;51.084;16.748;2023-05-22T06:06:51;100383.04;;;20.37;50.55
72096;BME280;59968;51.084;16.748;2023-05-22T06:09:21;100376.12;;;20.48;50.13
72096;BME280;59968;51.084;16.748;2023-05-22T06:12:25;100373.69;;;20.61;49.41
72096;BME280;59968;51.084;16.748;2023-05-22T06:14:54;100375.37;;;20.69;49.25
72096;BME280;59968;51.084;16.748;2023-05-22T06:17:24;100371.75;;;20.78;49.18
72096;BME280;59968;51.084;16.748;2023-05-22T06:19:53;100372.13;;;20.89;49.29
72096;BME280;59968;51.084;16.748;2023-05-22T06:22:23;100372.15;;;21.01;49.05
72096;BME280;59968;51.084;16.748;2023-05-22T06:24:54;100375.98;;;21.12;48.81
72096;BME280;59968;51.084;16.748;2023-05-22T06:27:26;100380.23;;;21.25;48.25
72096;BME280;59968;51.084;16.748;2023-05-22T06:29:56;100379.95;;;21.37;48.20
72096;BME280;59968;51.084;16.748;2023-05-22T06:32:28;100383.97;;;21.49;48.31
72096;BME280;59968;51.084;16.748;2023-05-22T06:34:58;100387.08;;;21.61;47.76
72096;BME280;59968;51.084;16.748;2023-05-22T06:37:27;100386.36;;;21.69;47.63
72096;BME280;59968;51.084;16.748;2023-05-22T06:39:57;100387.23;;;21.79;47.22
72096;BME280;59968;51.084;16.748;2023-05-22T06:42:39;100385.80;;;21.90;47.03
72096;BME280;59968;51.084;16.748;2023-05-22T06:45:47;100390.02;;;22.00;46.82
72096;BME280;59968;51.084;16.748;2023-05-22T06:48:19;100391.91;;;22.06;46.73
72096;BME280;59968;51.084;16.748;2023-05-22T06:51:03;100391.88;;;22.13;46.30
72096;BME280;59968;51.084;16.748;2023-05-22T06:53:32;100389.83;;;22.20;46.07
72096;BME280;59968;51.084;16.748;2023-05-22T06:56:03;100391.63;;;22.27;46.07
72096;BME280;59968;51.084;16.748;2023-05-22T06:58:53;100391.95;;;22.35;45.40
72096;BME280;59968;51.084;16.748;2023-05-22T07:01:26;100389.84;;;22.39;45.37
72096;BME280;59968;51.084;16.748;2023-05-22T07:04:05;100389.00;;;22.48;45.22
72096;BME280;59968;51.084;16.748;2023-05-22T07:06:45;100389.70;;;22.61;44.98
72096;BME280;59968;51.084;16.748;2023-05-22T07:09:17;100390.01;;;22.70;44.79
72096;BME280;59968;51.084;16.748;2023-05-22T07:11:47;100385.14;;;22.77;44.28
72096;BME280;59968;51.084;16.748;2023-05-22T07:14:16;100384.02;;;22.87;44.43
72096;BME280;59968;51.084;16.748;2023-05-22T07:16:47;100385.84;;;22.97;44.87
72096;BME280;59968;51.084;16.748;2023-05-22T07:19:20;100384.45;;;23.03;44.01
72096;BME280;59968;51.084;16.748;2023-05-22T07:21:49;100382.21;;;23.12;44.00
72096;BME280;59968;51.084;16.748;2023-05-22T07:24:19;100387.73;;;23.21;43.89
72096;BME280;59968;51.084;16.748;2023-05-22T07:26:50;100383.00;;;23.28;43.23
72096;BME280;59968;51.084;16.748;2023-05-22T07:29:20;100383.88;;;23.35;42.25
72096;BME280;59968;51.084;16.748;2023-05-22T07:31:52;100381.89;;;23.37;42.14
72096;BME280;59968;51.084;16.748;2023-05-22T07:34:22;100380.60;;;23.42;42.27
72096;BME280;59968;51.084;16.748;2023-05-22T07:36:50;100380.89;;;23.47;42.25
72096;BME280;59968;51.084;16.748;2023-05-22T07:39:19;100378.25;;;23.56;41.92
72096;BME280;59968;51.084;16.748;2023-05-22T07:41:48;100380.48;;;23.66;42.14
72096;BME280;59968;51.084;16.748;2023-05-22T07:44:18;100376.81;;;23.78;42.37
72096;BME280;59968;51.084;16.748;2023-05-22T07:46:46;100374.76;;;23.88;41.53
72096;BME280;59968;51.084;16.748;2023-05-22T07:49:19;100374.80;;;23.96;41.32
72096;BME280;59968;51.084;16.748;2023-05-22T07:51:50;100375.45;;;24.02;41.28
72096;BME280;59968;51.084;16.748;2023-05-22T07:54:20;100374.95;;;24.09;40.86
72096;BME280;59968;51.084;16.748;2023-05-22T07:56:51;100374.73;;;24.18;40.69
72096;BME280;59968;51.084;16.748;2023-05-22T07:59:21;100372.48;;;24.26;40.99
72096;BME280;59968;51.084;16.748;2023-05-22T08:01:50;100368.20;;;24.32;40.45
72096;BME280;59968;51.084;16.748;2023-05-22T08:04:19;100366.40;;;24.39;40.36
72096;BME280;59968;51.084;16.748;2023-05-22T08:06:47;100367.38;;;24.49;40.28
72096;BME280;59968;51.084;16.748;2023-05-22T08:09:16;100367.75;;;24.60;39.10
72096;BME280;59968;51.084;16.748;2023-05-22T08:11:46;100366.25;;;24.67;39.20
72096;BME280;59968;51.084;16.748;2023-05-22T08:14:14;100362.43;;;24.74;39.34
72096;BME280;59968;51.084;16.748;2023-05-22T08:16:43;100365.20;;;24.85;39.05
72096;BME280;59968;51.084;16.748;2023-05-22T08:19:11;100366.20;;;24.95;39.55
72096;BME280;59968;51.084;16.748;2023-05-22T08:21:41;100366.46;;;25.05;38.85
72096;BME280;59968;51.084;16.748;2023-05-22T08:24:09;100359.41;;;25.14;38.23
72096;BME280;59968;51.084;16.748;2023-05-22T08:26:38;100360.58;;;25.23;37.59
72096;BME280;59968;51.084;16.748;2023-05-22T08:29:09;100348.31;;;25.23;37.40
72096;BME280;59968;51.084;16.748;2023-05-22T08:31:38;100358.14;;;25.36;37.68
72096;BME280;59968;51.084;16.748;2023-05-22T08:34:06;100360.91;;;25.45;36.76
72096;BME280;59968;51.084;16.748;2023-05-22T08:36:37;100355.42;;;25.51;37.03
72096;BME280;59968;51.084;16.748;2023-05-22T08:39:08;100356.96;;;25.58;36.45
72096;BME280;59968;51.084;16.748;2023-05-22T08:41:37;100358.08;;;25.63;36.71
72096;BME280;59968;51.084;16.748;2023-05-22T08:44:05;100356.04;;;25.67;36.84
72096;BME280;59968;51.084;16.748;2023-05-22T08:46:35;100350.16;;;25.78;36.40
72096;BME280;59968;51.084;16.748;2023-05-22T08:49:09;100352.60;;;25.89;36.32
72096;BME280;59968;51.084;16.748;2023-05-22T08:51:40;100345.25;;;25.98;35.68
72096;BME280;59968;51.084;16.748;2023-05-22T08:54:14;100343.98;;;26.03;35.72
72096;BME280;59968;51.084;16.748;2023-05-22T08:56:47;100343.82;;;26.11;35.84
72096;BME280;59968;51.084;16.748;2023-05-22T08:59:24;100343.66;;;26.15;35.56
72096;BME280;59968;51.084;16.748;2023-05-22T09:01:53;100345.33;;;26.15;35.93
72096;BME280;59968;51.084;16.748;2023-05-22T09:04:23;100342.48;;;26.15;35.69
72096;BME280;59968;51.084;16.748;2023-05-22T09:06:52;100336.70;;;26.14;35.27
72096;BME280;59968;51.084;16.748;2023-05-22T09:09:22;100340.19;;;26.19;35.51
72096;BME280;59968;51.084;16.748;2023-05-22T09:11:52;100336.14;;;26.24;35.49
72096;BME280;59968;51.084;16.748;2023-05-22T09:14:23;100332.27;;;26.32;36.31
72096;BME280;59968;51.084;16.748;2023-05-22T09:16:52;100326.30;;;26.42;34.85
72096;BME280;59968;51.084;16.748;2023-05-22T09:19:23;100322.85;;;26.50;34.58
72096;BME280;59968;51.084;16.748;2023-05-22T09:22:04;100319.73;;;26.61;34.66
72096;BME280;59968;51.084;16.748;2023-05-22T09:24:42;100320.19;;;26.71;34.09
72096;BME280;59968;51.084;16.748;2023-05-22T09:27:13;100317.68;;;26.75;33.01
72096;BME280;59968;51.084;16.748;2023-05-22T09:29:50;100315.36;;;26.77;32.40
72096;BME280;59968;51.084;16.748;2023-05-22T09:32:22;100315.11;;;26.79;32.77
72096;BME280;59968;51.084;16.748;2023-05-22T09:34:51;100315.76;;;26.87;33.33
72096;BME280;59968;51.084;16.748;2023-05-22T09:37:32;100319.39;;;26.94;32.87
72096;BME280;59968;51.084;16.748;2023-05-22T09:40:06;100318.48;;;26.97;32.15
72096;BME280;59968;51.084;16.748;2023-05-22T09:42:36;100313.63;;;26.98;32.69
72096;BME280;59968;51.084;16.748;2023-05-22T09:45:06;100310.98;;;27.03;33.00
72096;BME280;59968;51.084;16.748;2023-05-22T09:47:36;100308.78;;;27.08;32.12
72096;BME280;59968;51.084;16.748;2023-05-22T09:50:06;100307.23;;;27.14;31.43
72096;BME280;59968;51.084;16.748;2023-05-22T09:52:39;100304.89;;;27.19;31.74
72096;BME280;59968;51.084;16.748;2023-05-22T09:55:12;100305.29;;;27.25;32.06
72096;BME280;59968;51.084;16.748;2023-05-22T09:57:44;100303.09;;;27.39;32.11
72096;BME280;59968;51.084;16.748;2023-05-22T10:00:14;100303.16;;;27.48;31.43
72096;BME280;59968;51.084;16.748;2023-05-22T10:03:06;100301.75;;;27.49;30.76
72096;BME280;59968;51.084;16.748;2023-05-22T10:05:45;100299.67;;;27.47;30.43
72096;BME280;59968;51.084;16.748;2023-05-22T10:08:23;100295.42;;;27.42;30.60
72096;BME280;59968;51.084;16.748;2023-05-22T10:10:53;100290.58;;;27.42;30.97
72096;BME280;59968;51.084;16.748;2023-05-22T10:13:25;100283.47;;;27.47;30.36
72096;BME280;59968;51.084;16.748;2023-05-22T10:15:56;100285.31;;;27.53;30.24
72096;BME280;59968;51.084;16.748;2023-05-22T10:18:26;100283.54;;;27.58;29.75
72096;BME280;59968;51.084;16.748;2023-05-22T10:20:59;100282.98;;;27.64;29.69
72096;BME280;59968;51.084;16.748;2023-05-22T10:23:28;100283.95;;;27.75;30.36
72096;BME280;59968;51.084;16.748;2023-05-22T10:25:59;100286.91;;;27.89;31.42
72096;BME280;59968;51.084;16.748;2023-05-22T10:28:37;100286.02;;;27.98;29.97
72096;BME280;59968;51.084;16.748;2023-05-22T10:31:27;100285.81;;;27.97;29.48
72096;BME280;59968;51.084;16.748;2023-05-22T10:34:41;100279.89;;;27.97;29.56
72096;BME280;59968;51.084;16.748;2023-05-22T10:40:13;100281.13;;;27.94;29.04
72096;BME280;59968;51.084;16.748;2023-05-22T10:42:45;100282.98;;;27.93;28.81
72096;BME280;59968;51.084;16.748;2023-05-22T10:45:15;100282.33;;;27.91;29.09
72096;BME280;59968;51.084;16.748;2023-05-22T10:47:43;100281.50;;;27.90;29.19
72096;BME280;59968;51.084;16.748;2023-05-22T10:50:13;100278.16;;;27.89;29.58
72096;BME280;59968;51.084;16.748;2023-05-22T10:52:41;100277.91;;;27.84;29.15
72096;BME280;59968;51.084;16.748;2023-05-22T10:55:10;100272.31;;;27.76;29.58
72096;BME280;59968;51.084;16.748;2023-05-22T10:57:40;100271.08;;;27.70;29.68
72096;BME280;59968;51.084;16.748;2023-05-22T11:00:11;100267.38;;;27.64;30.56
72096;BME280;59968;51.084;16.748;2023-05-22T11:02:44;100269.13;;;27.61;30.10
72096;BME280;59968;51.084;16.748;2023-05-22T11:08:11;100264.20;;;27.51;30.28
72096;BME280;59968;51.084;16.748;2023-05-22T11:10:57;100261.79;;;27.44;29.24
72096;BME280;59968;51.084;16.748;2023-05-22T11:13:28;100258.25;;;27.38;29.42
72096;BME280;59968;51.084;16.748;2023-05-22T11:16:03;100255.61;;;27.32;29.41
72096;BME280;59968;51.084;16.748;2023-05-22T11:18:32;100255.34;;;27.30;29.74
72096;BME280;59968;51.084;16.748;2023-05-22T11:21:01;100253.20;;;27.30;29.74
72096;BME280;59968;51.084;16.748;2023-05-22T11:23:32;100251.30;;;27.34;30.38
72096;BME280;59968;51.084;16.748;2023-05-22T11:26:21;100248.23;;;27.39;30.35
72096;BME280;59968;51.084;16.748;2023-05-22T11:28:54;100246.15;;;27.39;29.47
72096;BME280;59968;51.084;16.748;2023-05-22T11:31:23;100240.91;;;27.40;29.45
72096;BME280;59968;51.084;16.748;2023-05-22T11:33:53;100241.70;;;27.37;29.04
72096;BME280;59968;51.084;16.748;2023-05-22T11:36:22;100239.92;;;27.36;29.17
72096;BME280;59968;51.084;16.748;2023-05-22T11:38:58;100238.02;;;27.37;29.08
72096;BME280;59968;51.084;16.748;2023-05-22T11:41:32;100232.90;;;27.39;28.90
72096;BME280;59968;51.084;16.748;2023-05-22T11:44:01;100231.69;;;27.40;29.07
72096;BME280;59968;51.084;16.748;2023-05-22T11:46:30;100236.27;;;27.42;29.23
72096;BME280;59968;51.084;16.748;2023-05-22T11:49:01;100230.55;;;27.45;29.13
72096;BME280;59968;51.084;16.748;2023-05-22T11:51:29;100231.04;;;27.50;28.85
72096;BME280;59968;51.084;16.748;2023-05-22T11:53:58;100229.09;;;27.54;28.66
72096;BME280;59968;51.084;16.748;2023-05-22T11:56:27;100229.02;;;27.49;28.57
72096;BME280;59968;51.084;16.748;2023-05-22T11:58:57;100227.52;;;27.41;28.62
72096;BME280;59968;51.084;16.748;2023-05-22T12:01:26;100227.27;;;27.37;29.08
72096;BME280;59968;51.084;16.748;2023-05-22T12:03:54;100226.15;;;27.42;29.69
72096;BME280;59968;51.084;16.748;2023-05-22T12:06:23;100224.13;;;27.47;29.34
72096;BME280;59968;51.084;16.748;2023-05-22T12:08:52;100222.14;;;27.50;29.80
72096;BME280;59968;51.084;16.748;2023-05-22T12:11:25;100217.71;;;27.50;29.51
72096;BME280;59968;51.084;16.748;2023-05-22T12:14:03;100215.73;;;27.50;29.18
72096;BME280;59968;51.084;16.748;2023-05-22T12:16:35;100217.78;;;27.51;29.21
72096;BME280;59968;51.084;16.748;2023-05-22T12:19:08;100220.45;;;27.53;29.30
72096;BME280;59968;51.084;16.748;2023-05-22T12:21:39;100215.46;;;27.51;29.75
72096;BME280;59968;51.084;16.748;2023-05-22T12:24:13;100213.54;;;27.49;29.95
72096;BME280;59968;51.084;16.748;2023-05-22T12:26:48;100209.25;;;27.45;30.31
72096;BME280;59968;51.084;16.748;2023-05-22T12:29:20;100214.16;;;27.47;31.04
72096;BME280;59968;51.084;16.748;2023-05-22T12:31:50;100215.75;;;27.47;30.10
72096;BME280;59968;51.084;16.748;2023-05-22T12:34:18;100207.66;;;27.47;30.10
72096;BME280;59968;51.084;16.748;2023-05-22T12:36:47;100205.92;;;27.50;30.28
72096;BME280;59968;51.084;16.748;2023-05-22T12:39:17;100210.01;;;27.54;30.06
72096;BME280;59968;51.084;16.748;2023-05-22T12:41:45;100211.32;;;27.50;29.70
72096;BME280;59968;51.084;16.748;2023-05-22T12:44:14;100211.23;;;27.50;29.54
72096;BME280;59968;51.084;16.748;2023-05-22T12:46:43;100209.13;;;27.46;29.18
72096;BME280;59968;51.084;16.748;2023-05-22T12:49:12;100204.48;;;27.39;29.69
72096;BME280;59968;51.084;16.748;2023-05-22T12:51:40;100205.17;;;27.29;29.34
72096;BME280;59968;51.084;16.748;2023-05-22T12:54:09;100203.98;;;27.24;29.99
72096;BME280;59968;51.084;16.748;2023-05-22T12:56:38;100192.73;;;27.20;30.48
72096;BME280;59968;51.084;16.748;2023-05-22T12:59:06;100199.72;;;27.16;30.41
72096;BME280;59968;51.084;16.748;2023-05-22T13:01:35;100198.09;;;27.13;29.86
72096;BME280;59968;51.084;16.748;2023-05-22T13:04:03;100196.21;;;27.12;29.61
72096;BME280;59968;51.084;16.748;2023-05-22T13:06:32;100195.59;;;27.11;29.66
72096;BME280;59968;51.084;16.748;2023-05-22T13:09:01;100194.77;;;27.09;29.93
72096;BME280;59968;51.084;16.748;2023-05-22T13:11:29;100194.63;;;27.09;30.09
72096;BME280;59968;51.084;16.748;2023-05-22T13:13:58;100192.34;;;27.11;30.29
72096;BME280;59968;51.084;16.748;2023-05-22T13:16:27;100187.86;;;27.16;31.19
72096;BME280;59968;51.084;16.748;2023-05-22T13:18:55;100188.71;;;27.25;31.69
72096;BME280;59968;51.084;16.748;2023-05-22T13:21:24;100186.57;;;27.33;30.27
72096;BME280;59968;51.084;16.748;2023-05-22T13:23:54;100184.07;;;27.37;29.98
72096;BME280;59968;51.084;16.748;2023-05-22T13:26:23;100179.49;;;27.42;30.50
72096;BME280;59968;51.084;16.748;2023-05-22T13:28:52;100175.46;;;27.44;29.54
72096;BME280;59968;51.084;16.748;2023-05-22T13:31:20;100175.09;;;27.44;29.40
72096;BME280;59968;51.084;16.748;2023-05-22T13:33:48;100174.90;;;27.45;29.23
72096;BME280;59968;51.084;16.748;2023-05-22T13:36:17;100167.50;;;27.44;29.44